Time;durP1;ratioP1;P1;durP2;ratioP2;P2;SDS_P1;SDS_P2;PMS_P1;PMS_P2;Temp;Humidity;BMP_temperature;BMP_pressure;BME280_temperature;BME280_humidity;BME280_pressure;Samples;Min_cycle;Max_cycle;Signal;HPM_P1;HPM_P2
2021/06/12 00:01:21;;;;;;;11.77;10.67;;;18.10;99.90;;;;;;5115575;28;20422;-55
2021/06/12 00:03:48;;;;;;;10.33;9.43;;;18.10;99.90;;;;;;5113909;28;20831;-55
2021/06/12 00:06:15;;;;;;;10.70;9.80;;;18.30;99.90;;;;;;5117006;28;20432;-55
2021/06/12 00:08:42;;;;;;;10.67;9.57;;;18.30;99.90;;;;;;5111154;28;20410;-57
2021/06/12 00:11:09;;;;;;;9.70;8.90;;;18.30;99.90;;;;;;5112917;28;20474;-55
2021/06/12 00:13:36;;;;;;;10.73;9.63;;;18.30;99.90;;;;;;5115105;28;20485;-53
2021/06/12 00:16:04;;;;;;;10.80;9.70;;;18.30;99.90;;;;;;5114436;28;20466;-56
2021/06/12 00:18:31;;;;;;;9.97;8.90;;;18.30;99.90;;;;;;5116048;28;20794;-54
2021/06/12 00:20:58;;;;;;;11.53;9.80;;;18.90;99.90;;;;;;5111201;28;20444;-54
2021/06/12 00:23:26;;;;;;;10.37;9.37;;;18.20;99.90;;;;;;5115201;28;20476;-54
2021/06/12 00:25:53;;;;;;;15.27;11.47;;;18.10;99.90;;;;;;5115764;28;20415;-54
2021/06/12 00:28:20;;;;;;;11.07;10.03;;;18.10;99.90;;;;;;5116627;28;20455;-53
2021/06/12 00:30:48;;;;;;;10.03;9.07;;;18.00;99.90;;;;;;5112847;28;20458;-54
2021/06/12 00:33:15;;;;;;;10.67;9.57;;;18.00;99.90;;;;;;5102329;28;20435;-52
2021/06/12 00:35:42;;;;;;;9.90;9.00;;;18.00;99.90;;;;;;5108907;28;20494;-55
2021/06/12 00:38:10;;;;;;;10.97;9.43;;;17.90;99.90;;;;;;5113377;28;20403;-55
2021/06/12 00:40:37;;;;;;;10.40;9.40;;;18.00;99.90;;;;;;5113876;28;20659;-52
2021/06/12 00:43:04;;;;;;;10.17;9.13;;;18.00;99.90;;;;;;5115412;28;20434;-55
2021/06/12 00:45:33;;;;;;;10.07;9.07;;;18.00;99.90;;;;;;5114778;28;20449;-54
2021/06/12 00:48:01;;;;;;;9.93;9.03;;;18.20;99.90;;;;;;5115771;28;20496;-55
2021/06/12 00:50:32;;;;;;;9.57;8.73;;;18.30;99.90;;;;;;5109213;28;20481;-57
2021/06/12 00:53:01;;;;;;;10.10;9.10;;;18.50;99.90;;;;;;5114605;28;20600;-53
2021/06/12 00:55:28;;;;;;;11.60;10.40;;;18.50;99.90;;;;;;5102205;28;20425;-56
2021/06/12 00:57:57;;;;;;;10.50;9.60;;;18.60;99.90;;;;;;5102167;28;21010;-54
2021/06/12 01:00:24;;;;;;;9.90;9.00;;;18.60;99.90;;;;;;5109390;28;20482;-54
2021/06/12 01:02:51;;;;;;;10.20;9.20;;;18.80;99.90;;;;;;5112327;28;20433;-54
2021/06/12 01:05:21;;;;;;;9.97;9.07;;;18.90;99.90;;;;;;5114759;28;20661;-55
2021/06/12 01:07:48;;;;;;;10.57;9.57;;;19.00;99.90;;;;;;5109737;28;20475;-57
2021/06/12 01:10:17;;;;;;;9.83;8.67;;;19.10;99.90;;;;;;5116627;28;20466;-52
2021/06/12 01:13:20;;;;;;;10.63;9.60;;;19.00;99.90;;;;;;5107925;28;21275;-55
2021/06/12 01:16:25;;;;;;;10.07;9.20;;;18.90;99.90;;;;;;5098793;28;20495;-54
2021/06/12 01:18:57;;;;;;;10.90;9.77;;;18.80;99.90;;;;;;5096794;28;20466;-56
2021/06/12 01:21:38;;;;;;;9.87;9.07;;;18.70;99.90;;;;;;5095680;28;20638;-54
2021/06/12 01:24:35;;;;;;;10.13;9.13;;;18.50;99.90;;;;;;5095292;28;20408;-57
2021/06/12 01:27:08;;;;;;;11.27;10.20;;;18.30;99.90;;;;;;5095410;28;20413;-56
2021/06/12 01:29:41;;;;;;;10.50;9.50;;;18.30;99.90;;;;;;5110184;28;20411;-55
2021/06/12 01:32:11;;;;;;;10.67;9.57;;;18.30;99.90;;;;;;5108405;28;20597;-56
2021/06/12 01:34:40;;;;;;;12.13;9.67;;;18.20;99.90;;;;;;5116053;28;20513;-56
2021/06/12 01:37:10;;;;;;;9.60;8.70;;;18.20;99.90;;;;;;5098446;28;20424;-55
2021/06/12 01:39:39;;;;;;;8.90;8.10;;;18.20;99.90;;;;;;5113608;28;20457;-54
2021/06/12 01:42:08;;;;;;;10.23;9.33;;;18.20;99.90;;;;;;5118722;28;20927;-54
2021/06/12 01:44:36;;;;;;;10.77;9.57;;;18.20;99.90;;;;;;5107205;28;20465;-55
2021/06/12 01:47:05;;;;;;;10.80;9.13;;;18.30;99.90;;;;;;5101394;28;20506;-55
2021/06/12 01:49:33;;;;;;;10.20;9.30;;;18.40;99.90;;;;;;5100473;28;20445;-54
2021/06/12 01:52:02;;;;;;;13.40;9.43;;;18.50;99.90;;;;;;5101679;28;20480;-53
2021/06/12 01:54:30;;;;;;;13.90;9.30;;;18.60;99.90;;;;;;5108827;28;20696;-54
2021/06/12 01:56:59;;;;;;;11.37;10.17;;;18.70;99.90;;;;;;5106117;28;20422;-56
2021/06/12 01:59:27;;;;;;;10.43;9.43;;;18.90;99.90;;;;;;5119186;28;20469;-53
2021/06/12 02:01:59;;;;;;;9.90;8.90;;;18.90;99.90;;;;;;5106878;28;20419;-54
2021/06/12 02:04:27;;;;;;;12.30;9.47;;;18.90;99.90;;;;;;5107421;28;20451;-54
2021/06/12 02:07:00;;;;;;;10.50;9.50;;;18.90;99.90;;;;;;5119780;27;20449;-54
2021/06/12 02:09:29;;;;;;;9.00;8.10;;;18.90;99.90;;;;;;5105650;28;20413;-54
2021/06/12 02:11:57;;;;;;;9.77;8.87;;;18.90;99.90;;;;;;5106101;28;20497;-55
2021/06/12 02:14:25;;;;;;;10.27;9.10;;;19.00;99.90;;;;;;5112915;28;20417;-55
2021/06/12 02:16:54;;;;;;;9.90;9.00;;;19.10;99.90;;;;;;5100703;28;20428;-55
2021/06/12 02:19:22;;;;;;;11.07;9.97;;;18.80;99.90;;;;;;5104486;28;20528;-54
2021/06/12 02:21:51;;;;;;;10.13;9.33;;;18.90;99.90;;;;;;5117639;28;20408;-55
2021/06/12 02:24:18;;;;;;;10.20;9.27;;;18.90;99.90;;;;;;5104113;28;20402;-55
2021/06/12 02:26:48;;;;;;;10.07;9.03;;;19.00;99.90;;;;;;5118791;28;20428;-56
2021/06/12 02:29:16;;;;;;;10.20;9.40;;;18.90;99.90;;;;;;5103859;28;20683;-54
2021/06/12 02:31:52;;;;;;;10.57;9.47;;;18.80;99.90;;;;;;5117994;27;20863;-54
2021/06/12 02:34:19;;;;;;;10.83;9.80;;;18.50;99.90;;;;;;5117597;28;20518;-53
2021/06/12 02:36:46;;;;;;;10.60;9.60;;;18.50;99.90;;;;;;5118554;28;20427;-56
2021/06/12 02:39:13;;;;;;;10.10;9.30;;;18.50;99.90;;;;;;5117915;28;20442;-55
2021/06/12 02:41:40;;;;;;;10.97;9.97;;;18.40;99.90;;;;;;5111995;27;20900;-52
2021/06/12 02:44:07;;;;;;;10.93;9.83;;;18.30;99.90;;;;;;5099768;28;20418;-53
2021/06/12 02:46:40;;;;;;;11.07;10.07;;;18.10;99.90;;;;;;5106472;28;20794;-55
2021/06/12 02:49:09;;;;;;;10.80;9.90;;;18.00;99.90;;;;;;5106779;28;20466;-55
2021/06/12 02:51:40;;;;;;;11.03;9.60;;;18.10;99.90;;;;;;5102175;28;20505;-56
2021/06/12 02:54:08;;;;;;;10.23;9.33;;;18.00;99.90;;;;;;5118073;28;20417;-54
2021/06/12 02:56:36;;;;;;;11.30;10.23;;;18.00;99.90;;;;;;5117583;28;20439;-54
2021/06/12 02:59:09;;;;;;;11.07;9.00;;;17.70;99.90;;;;;;5117743;28;20444;-55
2021/06/12 03:01:38;;;;;;;11.80;10.60;;;17.80;99.90;;;;;;5105147;28;20455;-53
2021/06/12 03:04:06;;;;;;;10.60;9.10;;;17.80;99.90;;;;;;5105366;28;20444;-55
2021/06/12 03:06:34;;;;;;;10.83;9.67;;;17.80;99.90;;;;;;5117991;27;20418;-52
2021/06/12 03:09:02;;;;;;;10.57;9.50;;;17.90;99.90;;;;;;5105717;28;20734;-54
2021/06/12 03:11:31;;;;;;;10.27;9.40;;;17.90;99.90;;;;;;5117446;28;20488;-55
2021/06/12 03:13:59;;;;;;;10.40;9.40;;;17.90;99.90;;;;;;5102555;28;20445;-52
2021/06/12 03:16:27;;;;;;;11.20;10.10;;;18.00;99.90;;;;;;5100485;28;20474;-54
2021/06/12 03:18:57;;;;;;;11.83;10.73;;;17.80;99.90;;;;;;5115815;28;20419;-52
2021/06/12 03:21:26;;;;;;;11.57;10.40;;;17.80;99.90;;;;;;5108422;28;20467;-53
2021/06/12 03:23:54;;;;;;;11.83;10.70;;;18.00;99.90;;;;;;5116471;28;20444;-51
2021/06/12 03:26:23;;;;;;;13.03;9.80;;;18.20;99.90;;;;;;5116339;28;20421;-53
2021/06/12 03:28:52;;;;;;;10.40;9.40;;;18.20;99.90;;;;;;5116399;28;20426;-51
2021/06/12 03:31:20;;;;;;;11.93;10.83;;;18.50;99.90;;;;;;5113508;28;20687;-53
2021/06/12 03:33:47;;;;;;;11.50;10.50;;;18.70;99.90;;;;;;5117174;28;20745;-53
2021/06/12 03:36:16;;;;;;;10.23;9.33;;;19.20;99.90;;;;;;5117035;28;20419;-52
2021/06/12 03:38:43;;;;;;;12.80;10.03;;;19.60;99.90;;;;;;5116836;28;20420;-56
2021/06/12 03:41:11;;;;;;;11.63;10.60;;;20.10;99.90;;;;;;5115699;28;20427;-55
2021/06/12 03:43:38;;;;;;;14.37;11.00;;;20.50;99.90;;;;;;5117455;28;20423;-55
2021/06/12 03:46:06;;;;;;;11.90;9.67;;;21.00;99.90;;;;;;5116411;28;20420;-55
2021/06/12 03:48:35;;;;;;;11.10;10.27;;;21.70;99.90;;;;;;5116625;28;20442;-51
2021/06/12 03:51:03;;;;;;;10.20;9.20;;;22.30;99.70;;;;;;5104842;28;20482;-53
2021/06/12 03:53:31;;;;;;;11.30;10.30;;;22.70;98.80;;;;;;5114817;28;20445;-51
2021/06/12 03:55:59;;;;;;;11.10;10.07;;;23.10;97.70;;;;;;5116864;28;20447;-53
2021/06/12 03:58:26;;;;;;;10.50;9.60;;;23.10;97.80;;;;;;5102726;28;20417;-52
2021/06/12 04:00:53;;;;;;;10.70;9.80;;;23.00;97.90;;;;;;5107162;28;20551;-52
2021/06/12 04:03:20;;;;;;;11.17;10.07;;;23.20;97.50;;;;;;5114678;27;20523;-53
2021/06/12 04:05:47;;;;;;;13.10;10.50;;;23.10;97.60;;;;;;5117137;28;20447;-54
2021/06/12 04:08:14;;;;;;;11.07;10.17;;;22.90;97.90;;;;;;5113389;28;20423;-54
2021/06/12 04:10:41;;;;;;;11.93;10.83;;;23.10;97.50;;;;;;5102971;28;20485;-54
2021/06/12 04:13:08;;;;;;;11.93;10.77;;;23.20;97.40;;;;;;5103172;28;20668;-51
2021/06/12 04:15:35;;;;;;;12.40;11.10;;;23.20;96.90;;;;;;5100983;28;20447;-51
2021/06/12 04:18:08;;;;;;;12.00;10.93;;;23.10;97.20;;;;;;5116865;28;20427;-52
2021/06/12 04:20:38;;;;;;;11.93;10.83;;;23.00;97.10;;;;;;5115511;28;20474;-53
2021/06/12 04:23:06;;;;;;;11.57;10.47;;;22.80;97.60;;;;;;5116737;28;20413;-52
2021/06/12 04:25:33;;;;;;;11.00;10.10;;;22.50;98.20;;;;;;5117012;28;20512;-51
2021/06/12 04:28:00;;;;;;;12.00;10.83;;;22.30;98.40;;;;;;5111037;28;20409;-54
2021/06/12 04:30:28;;;;;;;12.07;11.00;;;22.20;98.60;;;;;;5107914;28;20423;-52
2021/06/12 04:32:57;;;;;;;11.47;10.47;;;22.10;98.90;;;;;;5113435;28;20746;-52
2021/06/12 04:35:25;;;;;;;12.17;10.87;;;22.00;99.00;;;;;;5107048;28;20729;-56
2021/06/12 04:37:53;;;;;;;11.20;10.37;;;22.10;99.10;;;;;;5115350;28;20509;-54
2021/06/12 04:40:20;;;;;;;10.20;9.20;;;22.00;99.20;;;;;;5116931;28;20448;-52
2021/06/12 04:42:47;;;;;;;10.87;9.93;;;22.00;99.20;;;;;;5101503;28;20449;-55
2021/06/12 04:45:14;;;;;;;10.17;9.37;;;22.30;98.60;;;;;;5116968;28;20418;-54
2021/06/12 04:47:41;;;;;;;10.23;9.33;;;22.60;97.90;;;;;;5116951;28;20760;-54
2021/06/12 04:50:10;;;;;;;10.13;9.30;;;23.00;97.30;;;;;;5097448;28;20453;-53
2021/06/12 04:52:38;;;;;;;10.43;9.63;;;23.30;96.90;;;;;;5097298;28;20944;-53
2021/06/12 04:55:07;;;;;;;8.97;8.37;;;23.60;96.00;;;;;;5100566;28;20572;-52
2021/06/12 04:57:35;;;;;;;9.33;8.67;;;23.60;95.70;;;;;;5107462;28;20474;-50
2021/06/12 05:00:06;;;;;;;11.93;10.93;;;23.60;95.50;;;;;;5100219;28;20505;-54
2021/06/12 05:02:33;;;;;;;8.73;8.03;;;23.50;95.70;;;;;;5106022;28;20497;-55
2021/06/12 05:05:00;;;;;;;9.70;8.70;;;23.40;95.90;;;;;;5118160;28;20491;-54
2021/06/12 05:07:27;;;;;;;8.90;8.10;;;23.60;95.70;;;;;;5106354;28;20750;-53
2021/06/12 05:09:54;;;;;;;8.90;8.20;;;23.50;95.80;;;;;;5114833;28;20449;-52
2021/06/12 05:12:21;;;;;;;9.97;9.27;;;23.10;95.70;;;;;;5106889;28;20502;-54
2021/06/12 05:14:50;;;;;;;11.13;8.77;;;23.10;96.00;;;;;;5110847;28;20457;-53
2021/06/12 05:17:18;;;;;;;8.33;7.73;;;23.10;96.20;;;;;;5110560;28;20491;-54
2021/06/12 05:19:46;;;;;;;8.87;8.27;;;23.20;95.90;;;;;;5119397;28;20477;-54
2021/06/12 05:22:13;;;;;;;10.37;9.30;;;23.60;95.60;;;;;;5104875;28;20828;-53
2021/06/12 05:24:41;;;;;;;8.43;7.83;;;23.60;95.40;;;;;;5113091;28;20446;-51
2021/06/12 05:27:08;;;;;;;9.03;8.43;;;23.70;95.00;;;;;;5113313;28;20420;-55
2021/06/12 05:29:35;;;;;;;9.93;9.07;;;23.80;95.00;;;;;;5113740;28;20907;-55
2021/06/12 05:32:02;;;;;;;8.93;8.13;;;23.60;94.80;;;;;;5099959;28;20486;-54
2021/06/12 05:34:29;;;;;;;8.60;7.80;;;23.60;95.20;;;;;;5113548;28;20499;-51
2021/06/12 05:36:58;;;;;;;10.30;9.50;;;23.50;95.30;;;;;;5118715;28;20442;-54
2021/06/12 05:39:25;;;;;;;9.00;8.30;;;23.60;94.90;;;;;;5105534;28;20453;-54
2021/06/12 05:41:52;;;;;;;9.17;8.53;;;23.60;95.20;;;;;;5117693;28;20417;-54
2021/06/12 05:44:19;;;;;;;11.93;9.23;;;23.50;95.30;;;;;;5105645;28;20500;-54
2021/06/12 05:46:49;;;;;;;9.53;8.63;;;23.60;95.00;;;;;;5118774;28;20630;-53
2021/06/12 05:49:18;;;;;;;11.83;8.87;;;23.50;94.90;;;;;;5118547;27;20555;-53
2021/06/12 05:51:46;;;;;;;8.10;7.50;;;23.40;94.90;;;;;;5116556;28;20831;-55
2021/06/12 05:54:14;;;;;;;8.40;7.60;;;23.10;95.50;;;;;;5118157;28;20719;-52
2021/06/12 05:56:41;;;;;;;8.10;7.40;;;23.30;95.30;;;;;;5118496;28;20449;-54
2021/06/12 05:59:08;;;;;;;8.50;7.90;;;23.20;95.80;;;;;;5119819;28;20449;-51
2021/06/12 06:01:35;;;;;;;8.63;7.93;;;23.10;95.70;;;;;;5117602;28;20421;-55
2021/06/12 06:04:03;;;;;;;7.93;7.40;;;23.00;96.30;;;;;;5100654;28;20503;-52
2021/06/12 06:06:30;;;;;;;7.60;7.10;;;23.10;96.10;;;;;;5111498;28;20519;-53
2021/06/12 06:08:57;;;;;;;7.73;7.23;;;23.20;95.50;;;;;;5118850;28;20438;-55
2021/06/12 06:11:24;;;;;;;7.37;6.97;;;23.80;94.90;;;;;;5112796;28;21057;-55
2021/06/12 06:13:51;;;;;;;7.90;7.40;;;24.40;93.40;;;;;;5112991;28;20765;-51
2021/06/12 06:16:19;;;;;;;7.83;7.23;;;25.00;92.30;;;;;;5108594;28;20446;-52
2021/06/12 06:18:46;;;;;;;8.00;7.40;;;25.70;91.90;;;;;;5114537;28;20913;-55
2021/06/12 06:21:13;;;;;;;7.90;6.47;;;26.00;91.00;;;;;;5113923;27;20489;-53
2021/06/12 06:23:40;;;;;;;9.40;7.93;;;26.40;89.40;;;;;;5119072;28;20438;-52
2021/06/12 06:26:07;;;;;;;8.53;7.90;;;27.40;87.70;;;;;;5103665;28;20748;-54
2021/06/12 06:28:35;;;;;;;9.40;8.77;;;28.30;83.80;;;;;;5118636;28;20447;-52
2021/06/12 06:31:02;;;;;;;8.50;8.00;;;28.50;82.30;;;;;;5118403;28;20491;-52
2021/06/12 06:33:29;;;;;;;9.33;8.60;;;28.70;81.60;;;;;;5118063;28;20490;-51
2021/06/12 06:35:56;;;;;;;8.03;7.63;;;28.70;81.70;;;;;;5117320;28;20572;-57
2021/06/12 06:38:24;;;;;;;9.40;8.70;;;28.60;81.00;;;;;;5110815;28;20454;-56
2021/06/12 06:40:51;;;;;;;8.50;8.00;;;28.80;80.70;;;;;;5097755;28;20504;-52
2021/06/12 06:43:18;;;;;;;8.43;7.93;;;29.20;79.30;;;;;;5115249;28;20445;-50
2021/06/12 06:45:46;;;;;;;9.10;8.57;;;29.40;77.30;;;;;;5116369;28;20446;-53
2021/06/12 06:48:15;;;;;;;9.40;8.60;;;29.40;77.60;;;;;;5118134;28;20429;-50
2021/06/12 06:50:46;;;;;;;9.20;8.60;;;29.40;78.00;;;;;;5107657;28;20457;-56
2021/06/12 06:53:13;;;;;;;8.33;7.73;;;30.30;75.30;;;;;;5112812;28;20497;-52
2021/06/12 06:55:40;;;;;;;8.20;7.80;;;31.10;73.30;;;;;;5108673;28;20489;-55
2021/06/12 06:58:07;;;;;;;10.33;9.67;;;31.40;71.50;;;;;;5112719;28;20445;-55
2021/06/12 07:00:34;;;;;;;9.43;8.73;;;31.50;70.00;;;;;;5118163;28;20442;-54
2021/06/12 07:03:02;;;;;;;9.00;8.40;;;32.10;67.60;;;;;;5117946;28;20452;-57
2021/06/12 07:05:29;;;;;;;8.10;7.70;;;32.70;64.50;;;;;;5116905;28;20442;-54
2021/06/12 07:07:57;;;;;;;9.20;8.60;;;32.10;65.10;;;;;;5118147;28;20442;-55
2021/06/12 07:10:24;;;;;;;9.60;8.90;;;31.90;65.60;;;;;;5103027;28;20589;-54
2021/06/12 07:12:57;;;;;;;9.07;8.57;;;31.20;68.10;;;;;;5117614;27;20483;-52
2021/06/12 07:15:25;;;;;;;9.10;8.70;;;31.40;67.40;;;;;;5113670;28;20439;-56
2021/06/12 07:17:53;;;;;;;9.10;8.47;;;31.30;68.20;;;;;;5106830;28;20488;-55
2021/06/12 07:20:21;;;;;;;9.70;9.10;;;31.50;67.60;;;;;;5116931;28;20470;-55
2021/06/12 07:22:48;;;;;;;8.73;8.20;;;31.70;65.90;;;;;;5106866;28;20758;-56
2021/06/12 07:25:16;;;;;;;8.70;8.20;;;32.00;65.60;;;;;;5107310;28;20505;-55
2021/06/12 07:27:43;;;;;;;7.80;7.40;;;31.90;65.60;;;;;;5098334;28;20440;-53
2021/06/12 07:30:11;;;;;;;9.60;9.00;;;31.60;66.40;;;;;;5112241;28;20451;-52
2021/06/12 07:32:38;;;;;;;8.13;7.73;;;32.20;65.50;;;;;;5114435;28;20682;-54
2021/06/12 07:35:05;;;;;;;10.13;9.43;;;33.10;62.70;;;;;;5110121;28;20764;-55
2021/06/12 07:37:32;;;;;;;8.73;8.27;;;33.50;60.90;;;;;;5115188;28;20613;-52
2021/06/12 07:39:59;;;;;;;9.20;8.53;;;33.20;61.20;;;;;;5114558;28;20809;-54
2021/06/12 07:42:26;;;;;;;9.80;9.30;;;33.10;61.40;;;;;;5113930;27;20434;-55
2021/06/12 07:44:53;;;;;;;8.47;8.07;;;32.80;61.40;;;;;;5117267;28;20764;-57
2021/06/12 07:47:21;;;;;;;9.40;8.90;;;33.10;61.30;;;;;;5116633;28;20446;-56
2021/06/12 07:49:48;;;;;;;8.90;8.30;;;33.50;60.00;;;;;;5100966;28;20479;-54
2021/06/12 07:52:15;;;;;;;9.50;8.83;;;34.40;57.90;;;;;;5099187;28;20482;-55
2021/06/12 07:54:42;;;;;;;8.40;8.00;;;33.80;56.50;;;;;;5110828;28;20496;-55
2021/06/12 07:57:09;;;;;;;8.90;8.27;;;34.80;56.20;;;;;;5117431;28;21071;-55
2021/06/12 07:59:36;;;;;;;9.10;8.70;;;34.60;56.20;;;;;;5103733;28;20638;-56
2021/06/12 08:02:03;;;;;;;9.67;9.17;;;34.50;55.50;;;;;;5096469;28;20446;-56
2021/06/12 08:04:31;;;;;;;8.67;8.27;;;35.20;54.50;;;;;;5109031;28;20659;-56
2021/06/12 08:06:58;;;;;;;10.00;9.40;;;36.60;52.50;;;;;;5102617;28;20480;-55
2021/06/12 08:09:25;;;;;;;9.30;8.90;;;37.10;51.10;;;;;;5116945;28;20441;-56
2021/06/12 08:11:52;;;;;;;9.87;9.37;;;39.00;48.10;;;;;;5113766;28;20482;-57
2021/06/12 08:14:19;;;;;;;9.80;9.00;;;38.20;47.50;;;;;;5113903;28;20454;-57
2021/06/12 08:16:46;;;;;;;8.97;8.47;;;37.10;49.50;;;;;;5110032;28;20488;-56
2021/06/12 08:19:14;;;;;;;9.10;8.50;;;36.70;49.30;;;;;;5109392;28;20438;-57
2021/06/12 08:21:43;;;;;;;9.87;9.37;;;35.80;50.90;;;;;;5112069;28;20434;-55
2021/06/12 08:24:11;;;;;;;9.20;8.70;;;35.10;52.10;;;;;;5114730;28;20476;-55
2021/06/12 08:26:38;;;;;;;9.33;8.87;;;36.10;50.30;;;;;;5114467;28;21001;-55
2021/06/12 08:29:05;;;;;;;8.27;7.97;;;37.30;48.40;;;;;;5112964;28;20426;-56
2021/06/12 08:31:36;;;;;;;9.33;8.87;;;37.90;46.80;;;;;;5111418;28;20519;-57
2021/06/12 08:34:04;;;;;;;9.43;9.00;;;38.10;45.40;;;;;;5107620;28;20753;-55
2021/06/12 08:36:31;;;;;;;10.43;9.40;;;38.20;45.30;;;;;;5112285;28;20434;-59
2021/06/12 08:38:58;;;;;;;10.63;10.13;;;38.60;45.20;;;;;;5114890;28;20442;-55
2021/06/12 08:41:25;;;;;;;8.83;8.37;;;38.80;44.00;;;;;;5120935;27;20752;-54
2021/06/12 08:43:57;;;;;;;8.57;8.27;;;39.10;43.80;;;;;;5117393;28;20864;-56
2021/06/12 08:46:27;;;;;;;9.23;8.93;;;39.20;43.60;;;;;;5120650;28;20450;-57
2021/06/12 08:48:55;;;;;;;8.73;8.33;;;38.60;43.80;;;;;;5111333;28;20515;-57
2021/06/12 08:51:23;;;;;;;9.07;8.77;;;39.10;43.00;;;;;;5113580;28;20530;-55
2021/06/12 08:53:51;;;;;;;9.10;8.73;;;40.20;41.90;;;;;;5120053;28;20491;-57
2021/06/12 08:56:18;;;;;;;9.37;8.90;;;40.70;40.20;;;;;;5111759;28;20443;-56
2021/06/12 08:58:45;;;;;;;9.10;8.70;;;41.40;39.00;;;;;;5119856;28;20747;-56
2021/06/12 09:01:19;;;;;;;9.30;8.90;;;41.00;38.40;;;;;;5116630;28;20499;-57
2021/06/12 09:03:47;;;;;;;8.90;8.50;;;41.40;37.00;;;;;;5113290;28;20510;-57
2021/06/12 09:06:21;;;;;;;8.87;8.40;;;41.20;37.20;;;;;;5114642;28;20438;-58
2021/06/12 09:08:59;;;;;;;9.37;9.00;;;41.40;37.10;;;;;;5117124;28;20784;-56
2021/06/12 09:11:32;;;;;;;8.10;7.70;;;40.50;37.80;;;;;;5116836;28;20462;-57
2021/06/12 09:14:01;;;;;;;7.97;7.40;;;40.60;37.60;;;;;;5116889;28;20476;-56
2021/06/12 09:16:30;;;;;;;7.70;7.40;;;39.10;39.30;;;;;;5116218;28;20446;-57
2021/06/12 09:19:22;;;;;;;8.73;8.43;;;36.90;42.50;;;;;;5118003;28;20430;-57
2021/06/12 09:21:55;;;;;;;8.20;7.80;;;35.40;44.80;;;;;;5115263;28;20433;-58
2021/06/12 09:24:29;;;;;;;9.17;8.77;;;34.80;46.10;;;;;;5110719;28;20679;-56
2021/06/12 09:27:07;;;;;;;8.00;7.60;;;34.10;47.00;;;;;;5114475;28;20433;-58
2021/06/12 09:29:43;;;;;;;8.40;8.00;;;33.80;48.00;;;;;;5117171;28;20465;-57
2021/06/12 09:32:11;;;;;;;7.90;7.50;;;33.90;48.10;;;;;;5115962;28;20481;-55
2021/06/12 09:34:40;;;;;;;8.43;8.03;;;33.80;48.30;;;;;;5114851;28;20464;-55
2021/06/12 09:37:16;;;;;;;7.63;7.33;;;33.50;48.20;;;;;;5118507;28;20491;-56
2021/06/12 09:40:02;;;;;;;7.97;7.57;;;33.20;48.70;;;;;;5117028;28;20951;-56
2021/06/12 09:42:53;;;;;;;8.20;7.90;;;32.70;49.30;;;;;;5118091;28;20439;-57
2021/06/12 09:45:26;;;;;;;8.27;7.97;;;32.40;50.50;;;;;;5115379;28;20449;-57
2021/06/12 09:48:11;;;;;;;7.87;7.23;;;32.30;50.60;;;;;;5099572;28;20441;-57
2021/06/12 09:50:40;;;;;;;7.53;7.23;;;31.90;51.40;;;;;;5109453;28;20449;-58
2021/06/12 09:53:22;;;;;;;7.80;7.40;;;31.40;52.40;;;;;;5113318;28;20710;-56
2021/06/12 09:55:49;;;;;;;7.30;6.90;;;31.10;53.00;;;;;;5117789;28;20473;-58
2021/06/12 09:58:16;;;;;;;7.50;7.20;;;31.30;53.40;;;;;;5118866;28;20443;-56
2021/06/12 10:00:48;;;;;;;7.67;7.23;;;31.30;52.50;;;;;;5113435;27;20510;-57
2021/06/12 10:03:28;;;;;;;7.90;7.50;;;31.40;52.90;;;;;;5108951;28;20446;-57
2021/06/12 10:06:23;;;;;;;8.00;7.60;;;31.30;52.30;;;;;;5116590;28;20487;-59
2021/06/12 10:08:52;;;;;;;7.73;7.20;;;31.40;52.80;;;;;;5117301;28;20500;-55
2021/06/12 10:11:30;;;;;;;7.13;6.83;;;30.90;52.90;;;;;;5116628;27;20526;-57
2021/06/12 10:14:09;;;;;;;7.40;7.10;;;30.80;53.20;;;;;;5115064;28;20892;-57
2021/06/12 10:16:40;;;;;;;7.10;6.80;;;30.50;54.30;;;;;;5117022;28;20540;-56
2021/06/12 10:19:09;;;;;;;7.60;7.20;;;30.20;54.90;;;;;;5117162;28;20512;-57
2021/06/12 10:21:38;;;;;;;7.80;7.30;;;30.00;55.80;;;;;;5113552;28;20421;-57
2021/06/12 10:24:07;;;;;;;7.80;7.20;;;29.50;56.70;;;;;;5117012;28;20476;-57
2021/06/12 10:26:35;;;;;;;7.00;6.60;;;29.10;58.30;;;;;;5116983;28;20651;-57
2021/06/12 10:29:03;;;;;;;7.90;7.50;;;28.90;58.70;;;;;;5117785;28;20529;-56
2021/06/12 10:31:34;;;;;;;7.23;6.93;;;28.80;58.70;;;;;;5112781;28;20503;-56
2021/06/12 10:34:02;;;;;;;7.47;7.07;;;28.90;59.50;;;;;;5116885;28;20519;-56
2021/06/12 10:36:33;;;;;;;7.90;7.50;;;28.80;60.10;;;;;;5116569;28;20442;-56
2021/06/12 10:39:02;;;;;;;7.80;7.40;;;28.80;60.10;;;;;;5114441;27;20438;-59
2021/06/12 10:41:34;;;;;;;7.67;7.37;;;28.70;61.30;;;;;;5112166;27;20525;-55
2021/06/12 10:44:04;;;;;;;7.80;7.50;;;28.60;61.40;;;;;;5113906;27;20434;-56
2021/06/12 10:46:33;;;;;;;7.50;7.20;;;28.50;62.20;;;;;;5112867;28;20452;-59
2021/06/12 10:49:05;;;;;;;7.90;7.60;;;28.00;63.60;;;;;;5117683;28;20771;-55
2021/06/12 10:51:33;;;;;;;8.60;8.27;;;27.40;65.60;;;;;;5117783;28;20440;-54
2021/06/12 10:57:11;;;;;;;9.90;9.10;;;24.90;86.70;;;;;;5104058;28;21843;-53
2021/06/12 10:59:46;;;;;;;8.87;8.37;;;22.60;99.90;;;;;;5116085;28;20405;-55
2021/06/12 11:02:24;;;;;;;8.20;7.60;;;21.40;99.90;;;;;;5099487;28;20405;-51
2021/06/12 11:04:59;;;;;;;6.60;6.20;;;20.80;99.90;;;;;;5098644;28;20465;-57
2021/06/12 11:07:28;;;;;;;7.60;7.10;;;20.40;99.90;;;;;;5105644;28;20414;-56
2021/06/12 11:10:16;;;;;;;5.20;4.87;;;20.40;99.90;;;;;;5116872;28;20435;-56
2021/06/12 11:12:53;;;;;;;3.90;3.60;;;20.40;99.90;;;;;;5099580;28;20502;-53
2021/06/12 11:15:23;;;;;;;5.27;4.87;;;20.40;99.90;;;;;;5114926;28;20409;-57
2021/06/12 11:18:22;;;;;;;3.57;3.37;;;20.50;99.90;;;;;;5110568;28;20414;-57
2021/06/12 11:20:58;;;;;;;4.07;3.77;;;20.50;99.90;;;;;;5103639;28;20492;-58
2021/06/12 11:23:45;;;;;;;5.43;5.13;;;20.70;99.90;;;;;;5108684;27;20623;-58
2021/06/12 11:26:14;;;;;;;6.50;6.10;;;20.60;99.90;;;;;;5129555;27;20436;-61
2021/06/12 11:28:42;;;;;;;8.00;7.37;;;20.20;99.90;;;;;;5116723;28;20442;-62
2021/06/12 11:31:29;;;;;;;8.67;8.07;;;19.80;99.90;;;;;;5115131;28;20466;-62
2021/06/12 11:34:12;;;;;;;8.77;8.07;;;19.40;99.90;;;;;;5116330;28;20497;-63
2021/06/12 11:36:40;;;;;;;8.23;7.53;;;19.30;99.90;;;;;;5104342;28;20635;-63
2021/06/12 11:39:07;;;;;;;7.37;6.87;;;19.30;99.90;;;;;;5114127;28;20504;-62
2021/06/12 11:41:35;;;;;;;7.63;7.13;;;19.30;99.90;;;;;;5102859;28;20439;-62
2021/06/12 11:44:02;;;;;;;8.07;7.47;;;19.50;99.90;;;;;;5104976;28;20426;-61
2021/06/12 11:46:37;;;;;;;8.30;7.70;;;19.60;99.90;;;;;;5098441;28;20421;-61
2021/06/12 11:49:07;;;;;;;6.43;6.03;;;19.70;99.90;;;;;;5096719;28;20442;-61
2021/06/12 11:51:47;;;;;;;7.03;6.43;;;20.20;99.90;;;;;;5105978;28;20417;-61
2021/06/12 11:54:31;;;;;;;6.53;6.03;;;20.60;99.90;;;;;;5108625;28;20462;-60
2021/06/12 11:57:02;;;;;;;6.37;5.87;;;20.90;99.90;;;;;;5095133;28;20756;-60
2021/06/12 11:59:32;;;;;;;6.87;6.03;;;20.80;99.90;;;;;;5105901;28;20455;-60
2021/06/12 12:02:02;;;;;;;7.13;6.43;;;20.60;99.90;;;;;;5097989;28;20495;-59
2021/06/12 12:04:39;;;;;;;7.10;6.40;;;20.60;99.90;;;;;;5113296;28;20424;-59
2021/06/12 12:07:09;;;;;;;7.33;6.60;;;21.00;99.90;;;;;;5097438;28;20437;-58
2021/06/12 12:09:41;;;;;;;7.10;6.43;;;21.40;99.90;;;;;;5112534;28;20410;-58
2021/06/12 12:12:14;;;;;;;6.80;6.10;;;21.60;99.90;;;;;;5113666;28;20688;-60
2021/06/12 12:14:47;;;;;;;6.37;5.87;;;21.80;99.90;;;;;;5111796;28;20806;-60
2021/06/12 12:17:30;;;;;;;5.60;5.20;;;22.20;99.90;;;;;;5111423;28;20418;-60
2021/06/12 12:20:08;;;;;;;6.20;5.70;;;22.50;99.90;;;;;;5116473;28;20725;-60
2021/06/12 12:22:37;;;;;;;5.70;5.30;;;22.80;99.90;;;;;;5099201;28;20726;-59
2021/06/12 12:25:07;;;;;;;5.10;4.70;;;23.20;99.90;;;;;;5115046;28;20779;-60
2021/06/12 12:27:35;;;;;;;10.53;5.83;;;23.30;99.90;;;;;;5115570;28;20730;-58
2021/06/12 12:30:06;;;;;;;5.50;5.10;;;23.50;99.90;;;;;;5107584;28;20441;-59
2021/06/12 12:32:53;;;;;;;4.97;4.67;;;23.80;99.90;;;;;;5115942;28;20449;-58
2021/06/12 12:35:21;;;;;;;6.20;5.70;;;24.30;99.90;;;;;;5098785;28;20417;-57
2021/06/12 12:37:48;;;;;;;6.20;5.80;;;24.90;99.90;;;;;;5112959;28;20820;-59
2021/06/12 12:40:20;;;;;;;5.93;5.53;;;25.40;99.90;;;;;;5114719;28;20470;-59
2021/06/12 12:42:59;;;;;;;5.73;5.33;;;25.50;99.90;;;;;;5116516;28;20442;-58
2021/06/12 12:45:32;;;;;;;6.20;5.70;;;25.80;99.90;;;;;;5111675;28;20442;-57
2021/06/12 12:48:01;;;;;;;5.83;5.43;;;25.70;99.00;;;;;;5106211;28;20430;-58
2021/06/12 12:50:28;;;;;;;5.13;4.83;;;25.70;99.80;;;;;;5117500;28;20446;-59
2021/06/12 12:53:05;;;;;;;6.10;5.60;;;25.90;98.70;;;;;;5106423;28;20453;-60
2021/06/12 12:55:33;;;;;;;7.73;7.07;;;26.30;99.00;;;;;;5104845;28;20444;-58
2021/06/12 12:58:01;;;;;;;7.03;6.53;;;26.90;98.10;;;;;;5115327;28;20472;-58
2021/06/12 13:00:30;;;;;;;8.43;7.93;;;27.30;96.30;;;;;;5117619;28;20438;-58